sensor_id;sensor_type;location;lat;lon;timestamp;P1;durP1;ratioP1;P2;durP2;ratioP2
21754;SDS011;11039;50.028;19.938;2022-08-18T00:01:14;17.15;;;15.32;;
21754;SDS011;11039;50.028;19.938;2022-08-18T00:03:41;17.27;;;15.30;;
21754;SDS011;11039;50.028;19.938;2022-08-18T00:06:08;16.65;;;14.85;;
21754;SDS011;11039;50.028;19.938;2022-08-18T00:08:34;15.98;;;14.32;;
21754;SDS011;11039;50.028;19.938;2022-08-18T00:11:00;17.88;;;16.08;;
21754;SDS011;11039;50.028;19.938;2022-08-18T00:13:26;17.92;;;15.57;;
21754;SDS011;11039;50.028;19.938;2022-08-18T00:15:52;18.55;;;15.68;;
21754;SDS011;11039;50.028;19.938;2022-08-18T00:18:18;17.65;;;15.80;;
21754;SDS011;11039;50.028;19.938;2022-08-18T00:20:45;18.00;;;16.10;;
21754;SDS011;11039;50.028;19.938;2022-08-18T00:23:11;16.33;;;14.65;;
21754;SDS011;11039;50.028;19.938;2022-08-18T00:25:37;18.95;;;15.70;;
21754;SDS011;11039;50.028;19.938;2022-08-18T00:28:03;18.92;;;16.92;;
21754;SDS011;11039;50.028;19.938;2022-08-18T00:30:29;17.65;;;15.60;;
21754;SDS011;11039;50.028;19.938;2022-08-18T00:32:56;19.08;;;15.95;;
21754;SDS011;11039;50.028;19.938;2022-08-18T00:35:24;18.23;;;15.93;;
21754;SDS011;11039;50.028;19.938;2022-08-18T00:37:51;19.23;;;17.08;;
21754;SDS011;11039;50.028;19.938;2022-08-18T00:40:18;21.77;;;18.13;;
21754;SDS011;11039;50.028;19.938;2022-08-18T00:42:46;20.33;;;18.08;;
21754;SDS011;11039;50.028;19.938;2022-08-18T00:45:16;20.23;;;18.00;;
21754;SDS011;11039;50.028;19.938;2022-08-18T00:47:42;20.85;;;18.67;;
21754;SDS011;11039;50.028;19.938;2022-08-18T00:50:10;20.13;;;18.02;;
21754;SDS011;11039;50.028;19.938;2022-08-18T00:52:37;19.45;;;17.25;;
21754;SDS011;11039;50.028;19.938;2022-08-18T00:55:04;21.88;;;18.50;;
21754;SDS011;11039;50.028;19.938;2022-08-18T00:57:30;20.20;;;18.20;;
21754;SDS011;11039;50.028;19.938;2022-08-18T01:00:00;22.65;;;18.73;;
21754;SDS011;11039;50.028;19.938;2022-08-18T01:02:34;20.58;;;18.42;;
21754;SDS011;11039;50.028;19.938;2022-08-18T01:05:03;22.13;;;18.75;;
21754;SDS011;11039;50.028;19.938;2022-08-18T01:07:35;21.35;;;19.15;;
21754;SDS011;11039;50.028;19.938;2022-08-18T01:10:02;24.40;;;20.63;;
21754;SDS011;11039;50.028;19.938;2022-08-18T01:12:29;23.98;;;20.23;;
21754;SDS011;11039;50.028;19.938;2022-08-18T01:14:55;22.10;;;19.73;;
21754;SDS011;11039;50.028;19.938;2022-08-18T01:17:22;23.45;;;20.98;;
21754;SDS011;11039;50.028;19.938;2022-08-18T01:20:08;25.05;;;22.17;;
21754;SDS011;11039;50.028;19.938;2022-08-18T01:22:56;23.30;;;20.85;;
21754;SDS011;11039;50.028;19.938;2022-08-18T01:25:23;25.10;;;22.10;;
21754;SDS011;11039;50.028;19.938;2022-08-18T01:28:07;22.45;;;20.30;;
21754;SDS011;11039;50.028;19.938;2022-08-18T01:30:44;27.10;;;21.33;;
21754;SDS011;11039;50.028;19.938;2022-08-18T01:33:10;24.65;;;20.45;;
21754;SDS011;11039;50.028;19.938;2022-08-18T01:35:36;23.27;;;20.88;;
21754;SDS011;11039;50.028;19.938;2022-08-18T01:38:03;23.83;;;21.52;;
21754;SDS011;11039;50.028;19.938;2022-08-18T01:40:29;21.50;;;19.25;;
21754;SDS011;11039;50.028;19.938;2022-08-18T01:42:56;21.30;;;19.08;;
21754;SDS011;11039;50.028;19.938;2022-08-18T01:45:22;21.95;;;19.00;;
21754;SDS011;11039;50.028;19.938;2022-08-18T01:47:48;20.13;;;17.75;;
21754;SDS011;11039;50.028;19.938;2022-08-18T01:50:15;19.58;;;17.45;;
21754;SDS011;11039;50.028;19.938;2022-08-18T01:52:41;19.23;;;17.27;;
21754;SDS011;11039;50.028;19.938;2022-08-18T01:55:07;18.52;;;16.63;;
21754;SDS011;11039;50.028;19.938;2022-08-18T01:57:37;19.48;;;17.42;;
21754;SDS011;11039;50.028;19.938;2022-08-18T02:00:10;18.25;;;16.33;;
21754;SDS011;11039;50.028;19.938;2022-08-18T02:02:36;22.50;;;16.40;;
21754;SDS011;11039;50.028;19.938;2022-08-18T02:05:04;17.15;;;15.45;;
21754;SDS011;11039;50.028;19.938;2022-08-18T02:07:32;18.15;;;16.25;;
21754;SDS011;11039;50.028;19.938;2022-08-18T02:09:58;17.92;;;16.08;;
21754;SDS011;11039;50.028;19.938;2022-08-18T02:12:24;17.02;;;15.23;;
21754;SDS011;11039;50.028;19.938;2022-08-18T02:14:50;18.15;;;16.10;;
21754;SDS011;11039;50.028;19.938;2022-08-18T02:17:17;20.92;;;16.30;;
21754;SDS011;11039;50.028;19.938;2022-08-18T02:19:44;18.92;;;16.17;;
21754;SDS011;11039;50.028;19.938;2022-08-18T02:22:11;17.75;;;15.95;;
21754;SDS011;11039;50.028;19.938;2022-08-18T02:24:38;18.58;;;16.33;;
21754;SDS011;11039;50.028;19.938;2022-08-18T02:27:04;17.85;;;15.95;;
21754;SDS011;11039;50.028;19.938;2022-08-18T02:29:30;19.45;;;16.10;;
21754;SDS011;11039;50.028;19.938;2022-08-18T02:31:56;19.98;;;17.88;;
21754;SDS011;11039;50.028;19.938;2022-08-18T02:34:22;20.30;;;17.27;;
21754;SDS011;11039;50.028;19.938;2022-08-18T02:36:49;22.10;;;19.50;;
21754;SDS011;11039;50.028;19.938;2022-08-18T02:39:16;22.58;;;20.00;;
21754;SDS011;11039;50.028;19.938;2022-08-18T02:41:42;23.33;;;20.98;;
21754;SDS011;11039;50.028;19.938;2022-08-18T02:44:08;22.92;;;20.50;;
21754;SDS011;11039;50.028;19.938;2022-08-18T02:46:35;22.92;;;20.45;;
21754;SDS011;11039;50.028;19.938;2022-08-18T02:49:01;23.90;;;21.40;;
21754;SDS011;11039;50.028;19.938;2022-08-18T02:51:27;24.42;;;21.80;;
21754;SDS011;11039;50.028;19.938;2022-08-18T02:53:53;25.85;;;21.63;;
21754;SDS011;11039;50.028;19.938;2022-08-18T02:56:21;23.98;;;21.27;;
21754;SDS011;11039;50.028;19.938;2022-08-18T02:58:48;24.75;;;21.25;;
21754;SDS011;11039;50.028;19.938;2022-08-18T03:01:16;22.98;;;20.63;;
21754;SDS011;11039;50.028;19.938;2022-08-18T03:03:42;21.83;;;19.73;;
21754;SDS011;11039;50.028;19.938;2022-08-18T03:06:08;20.83;;;18.83;;
21754;SDS011;11039;50.028;19.938;2022-08-18T03:08:34;22.90;;;20.42;;
21754;SDS011;11039;50.028;19.938;2022-08-18T03:11:00;22.73;;;20.35;;
21754;SDS011;11039;50.028;19.938;2022-08-18T03:13:26;23.27;;;20.77;;
21754;SDS011;11039;50.028;19.938;2022-08-18T03:15:54;25.25;;;22.45;;
21754;SDS011;11039;50.028;19.938;2022-08-18T03:18:20;22.98;;;20.02;;
21754;SDS011;11039;50.028;19.938;2022-08-18T03:20:47;23.02;;;20.70;;
21754;SDS011;11039;50.028;19.938;2022-08-18T03:23:13;23.80;;;21.50;;
21754;SDS011;11039;50.028;19.938;2022-08-18T03:25:42;22.90;;;20.60;;
21754;SDS011;11039;50.028;19.938;2022-08-18T03:28:08;24.50;;;21.48;;
21754;SDS011;11039;50.028;19.938;2022-08-18T03:30:34;24.38;;;21.77;;
21754;SDS011;11039;50.028;19.938;2022-08-18T03:33:00;25.23;;;22.17;;
21754;SDS011;11039;50.028;19.938;2022-08-18T03:35:26;25.42;;;22.77;;
21754;SDS011;11039;50.028;19.938;2022-08-18T03:37:57;27.23;;;22.48;;
21754;SDS011;11039;50.028;19.938;2022-08-18T03:40:23;24.23;;;21.63;;
21754;SDS011;11039;50.028;19.938;2022-08-18T03:42:49;22.48;;;19.92;;
21754;SDS011;11039;50.028;19.938;2022-08-18T03:45:15;27.50;;;23.77;;
21754;SDS011;11039;50.028;19.938;2022-08-18T03:47:41;26.48;;;23.05;;
21754;SDS011;11039;50.028;19.938;2022-08-18T03:50:09;28.90;;;25.75;;
21754;SDS011;11039;50.028;19.938;2022-08-18T03:52:35;31.65;;;27.15;;
21754;SDS011;11039;50.028;19.938;2022-08-18T03:55:02;30.88;;;26.75;;
21754;SDS011;11039;50.028;19.938;2022-08-18T03:57:28;33.78;;;27.80;;
21754;SDS011;11039;50.028;19.938;2022-08-18T03:59:57;35.47;;;27.85;;
21754;SDS011;11039;50.028;19.938;2022-08-18T04:02:23;31.52;;;25.63;;
21754;SDS011;11039;50.028;19.938;2022-08-18T04:04:49;30.73;;;26.58;;
21754;SDS011;11039;50.028;19.938;2022-08-18T04:07:15;26.90;;;23.10;;
21754;SDS011;11039;50.028;19.938;2022-08-18T04:09:42;26.85;;;23.02;;
21754;SDS011;11039;50.028;19.938;2022-08-18T04:12:10;26.38;;;22.42;;
21754;SDS011;11039;50.028;19.938;2022-08-18T04:14:38;25.58;;;22.70;;
21754;SDS011;11039;50.028;19.938;2022-08-18T04:17:04;26.98;;;22.15;;
21754;SDS011;11039;50.028;19.938;2022-08-18T04:19:30;25.52;;;21.95;;
21754;SDS011;11039;50.028;19.938;2022-08-18T04:21:58;22.75;;;20.35;;
21754;SDS011;11039;50.028;19.938;2022-08-18T04:24:25;22.75;;;19.65;;
21754;SDS011;11039;50.028;19.938;2022-08-18T04:26:52;20.25;;;18.15;;
21754;SDS011;11039;50.028;19.938;2022-08-18T04:29:19;21.10;;;18.80;;
21754;SDS011;11039;50.028;19.938;2022-08-18T04:31:45;21.05;;;18.77;;
21754;SDS011;11039;50.028;19.938;2022-08-18T04:34:12;21.60;;;19.45;;
21754;SDS011;11039;50.028;19.938;2022-08-18T04:36:38;20.98;;;18.33;;
21754;SDS011;11039;50.028;19.938;2022-08-18T04:39:05;24.42;;;18.88;;
21754;SDS011;11039;50.028;19.938;2022-08-18T04:41:32;21.42;;;17.92;;
21754;SDS011;11039;50.028;19.938;2022-08-18T04:44:00;20.23;;;18.13;;
21754;SDS011;11039;50.028;19.938;2022-08-18T04:46:27;19.80;;;17.67;;
21754;SDS011;11039;50.028;19.938;2022-08-18T04:48:53;20.30;;;18.05;;
21754;SDS011;11039;50.028;19.938;2022-08-18T04:51:23;19.65;;;17.02;;
21754;SDS011;11039;50.028;19.938;2022-08-18T04:53:49;20.13;;;18.13;;
21754;SDS011;11039;50.028;19.938;2022-08-18T04:56:28;20.45;;;18.00;;
21754;SDS011;11039;50.028;19.938;2022-08-18T04:59:02;19.88;;;17.75;;
21754;SDS011;11039;50.028;19.938;2022-08-18T05:01:32;19.98;;;17.65;;
21754;SDS011;11039;50.028;19.938;2022-08-18T05:03:58;21.42;;;18.77;;
21754;SDS011;11039;50.028;19.938;2022-08-18T05:06:25;20.63;;;18.08;;
21754;SDS011;11039;50.028;19.938;2022-08-18T05:08:52;21.13;;;18.80;;
21754;SDS011;11039;50.028;19.938;2022-08-18T05:11:19;31.20;;;18.45;;
21754;SDS011;11039;50.028;19.938;2022-08-18T05:13:46;24.63;;;19.50;;
21754;SDS011;11039;50.028;19.938;2022-08-18T05:16:12;24.35;;;18.73;;
21754;SDS011;11039;50.028;19.938;2022-08-18T05:18:38;24.08;;;18.50;;
21754;SDS011;11039;50.028;19.938;2022-08-18T05:21:05;23.25;;;19.13;;
21754;SDS011;11039;50.028;19.938;2022-08-18T05:23:35;21.52;;;18.67;;
21754;SDS011;11039;50.028;19.938;2022-08-18T05:26:02;21.08;;;17.92;;
21754;SDS011;11039;50.028;19.938;2022-08-18T05:28:29;19.85;;;17.75;;
21754;SDS011;11039;50.028;19.938;2022-08-18T05:30:55;27.83;;;24.25;;
21754;SDS011;11039;50.028;19.938;2022-08-18T05:33:21;27.00;;;22.48;;
21754;SDS011;11039;50.028;19.938;2022-08-18T05:35:49;31.95;;;25.35;;
21754;SDS011;11039;50.028;19.938;2022-08-18T05:40:42;29.85;;;24.80;;
21754;SDS011;11039;50.028;19.938;2022-08-18T05:43:10;28.85;;;25.75;;
21754;SDS011;11039;50.028;19.938;2022-08-18T05:45:36;26.42;;;22.08;;
21754;SDS011;11039;50.028;19.938;2022-08-18T05:48:03;29.17;;;22.17;;
21754;SDS011;11039;50.028;19.938;2022-08-18T05:50:30;26.23;;;21.02;;
21754;SDS011;11039;50.028;19.938;2022-08-18T05:52:58;30.55;;;22.13;;
21754;SDS011;11039;50.028;19.938;2022-08-18T05:55:26;31.80;;;21.23;;
21754;SDS011;11039;50.028;19.938;2022-08-18T05:58:21;30.73;;;20.67;;
21754;SDS011;11039;50.028;19.938;2022-08-18T06:00:52;34.95;;;21.50;;
21754;SDS011;11039;50.028;19.938;2022-08-18T06:03:21;27.55;;;20.90;;
21754;SDS011;11039;50.028;19.938;2022-08-18T06:05:51;26.80;;;20.02;;
21754;SDS011;11039;50.028;19.938;2022-08-18T06:08:17;25.02;;;18.77;;
21754;SDS011;11039;50.028;19.938;2022-08-18T06:10:47;29.77;;;20.10;;
21754;SDS011;11039;50.028;19.938;2022-08-18T06:13:13;24.80;;;19.27;;
21754;SDS011;11039;50.028;19.938;2022-08-18T06:15:47;23.45;;;18.88;;
21754;SDS011;11039;50.028;19.938;2022-08-18T06:18:22;24.40;;;18.77;;
21754;SDS011;11039;50.028;19.938;2022-08-18T06:26:04;24.77;;;17.73;;
21754;SDS011;11039;50.028;19.938;2022-08-18T06:31:22;24.35;;;18.48;;
21754;SDS011;11039;50.028;19.938;2022-08-18T06:36:31;21.92;;;18.95;;
21754;SDS011;11039;50.028;19.938;2022-08-18T06:39:20;22.23;;;18.80;;
21754;SDS011;11039;50.028;19.938;2022-08-18T06:41:48;24.48;;;19.60;;
21754;SDS011;11039;50.028;19.938;2022-08-18T06:44:16;27.85;;;19.92;;
21754;SDS011;11039;50.028;19.938;2022-08-18T06:46:46;20.95;;;17.42;;
21754;SDS011;11039;50.028;19.938;2022-08-18T06:49:27;23.17;;;17.92;;
21754;SDS011;11039;50.028;19.938;2022-08-18T06:51:55;20.52;;;16.90;;
21754;SDS011;11039;50.028;19.938;2022-08-18T06:56:48;18.95;;;17.02;;
21754;SDS011;11039;50.028;19.938;2022-08-18T07:01:55;21.20;;;15.88;;
21754;SDS011;11039;50.028;19.938;2022-08-18T07:04:43;20.35;;;17.52;;
21754;SDS011;11039;50.028;19.938;2022-08-18T07:07:33;21.63;;;18.00;;
21754;SDS011;11039;50.028;19.938;2022-08-18T07:10:00;18.20;;;16.40;;
21754;SDS011;11039;50.028;19.938;2022-08-18T07:12:27;20.48;;;17.35;;
21754;SDS011;11039;50.028;19.938;2022-08-18T07:14:55;18.13;;;15.50;;
21754;SDS011;11039;50.028;19.938;2022-08-18T07:17:26;20.02;;;16.77;;
21754;SDS011;11039;50.028;19.938;2022-08-18T07:19:57;18.70;;;15.00;;
21754;SDS011;11039;50.028;19.938;2022-08-18T07:22:23;17.70;;;15.88;;
21754;SDS011;11039;50.028;19.938;2022-08-18T07:24:50;17.92;;;15.30;;
21754;SDS011;11039;50.028;19.938;2022-08-18T07:27:20;20.63;;;16.30;;
21754;SDS011;11039;50.028;19.938;2022-08-18T07:30:03;18.20;;;15.85;;
21754;SDS011;11039;50.028;19.938;2022-08-18T07:32:42;22.27;;;15.00;;
21754;SDS011;11039;50.028;19.938;2022-08-18T07:35:09;16.98;;;14.90;;
21754;SDS011;11039;50.028;19.938;2022-08-18T07:38:12;16.60;;;14.90;;
21754;SDS011;11039;50.028;19.938;2022-08-18T07:40:40;16.52;;;14.82;;
21754;SDS011;11039;50.028;19.938;2022-08-18T07:45:45;18.27;;;15.10;;
21754;SDS011;11039;50.028;19.938;2022-08-18T07:48:16;17.35;;;14.30;;
21754;SDS011;11039;50.028;19.938;2022-08-18T07:56:12;18.58;;;13.88;;
21754;SDS011;11039;50.028;19.938;2022-08-18T07:58:53;16.08;;;13.98;;
21754;SDS011;11039;50.028;19.938;2022-08-18T08:01:35;15.95;;;14.13;;
21754;SDS011;11039;50.028;19.938;2022-08-18T08:06:53;15.25;;;12.98;;
21754;SDS011;11039;50.028;19.938;2022-08-18T08:09:33;15.82;;;12.88;;
21754;SDS011;11039;50.028;19.938;2022-08-18T08:20:00;14.73;;;13.23;;
21754;SDS011;11039;50.028;19.938;2022-08-18T08:22:36;15.32;;;13.77;;
21754;SDS011;11039;50.028;19.938;2022-08-18T08:30:12;14.68;;;13.23;;
21754;SDS011;11039;50.028;19.938;2022-08-18T08:35:11;14.93;;;13.27;;
21754;SDS011;11039;50.028;19.938;2022-08-18T08:43:05;14.82;;;13.18;;
21754;SDS011;11039;50.028;19.938;2022-08-18T08:45:29;14.25;;;12.85;;
21754;SDS011;11039;50.028;19.938;2022-08-18T08:48:15;16.92;;;14.43;;
21754;SDS011;11039;50.028;19.938;2022-08-18T08:50:44;15.20;;;13.70;;
21754;SDS011;11039;50.028;19.938;2022-08-18T08:55:40;15.40;;;13.52;;
21754;SDS011;11039;50.028;19.938;2022-08-18T09:00:53;14.82;;;13.32;;
21754;SDS011;11039;50.028;19.938;2022-08-18T09:05:59;15.57;;;13.00;;
21754;SDS011;11039;50.028;19.938;2022-08-18T09:19:15;16.95;;;12.60;;
21754;SDS011;11039;50.028;19.938;2022-08-18T09:24:37;13.48;;;11.88;;
21754;SDS011;11039;50.028;19.938;2022-08-18T09:27:11;13.85;;;12.50;;
21754;SDS011;11039;50.028;19.938;2022-08-18T09:29:46;14.73;;;11.93;;
21754;SDS011;11039;50.028;19.938;2022-08-18T09:35:08;13.95;;;12.55;;
21754;SDS011;11039;50.028;19.938;2022-08-18T09:40:13;12.18;;;10.90;;
21754;SDS011;11039;50.028;19.938;2022-08-18T09:50:51;12.35;;;11.25;;
21754;SDS011;11039;50.028;19.938;2022-08-18T09:55:56;13.68;;;11.15;;
21754;SDS011;11039;50.028;19.938;2022-08-18T10:03:33;14.40;;;11.55;;
21754;SDS011;11039;50.028;19.938;2022-08-18T10:06:05;11.98;;;10.77;;
21754;SDS011;11039;50.028;19.938;2022-08-18T10:08:38;12.50;;;11.32;;
21754;SDS011;11039;50.028;19.938;2022-08-18T10:16:20;11.20;;;10.20;;
21754;SDS011;11039;50.028;19.938;2022-08-18T10:21:17;12.18;;;10.93;;
21754;SDS011;11039;50.028;19.938;2022-08-18T10:23:47;12.30;;;11.02;;
21754;SDS011;11039;50.028;19.938;2022-08-18T10:31:21;11.85;;;10.23;;
21754;SDS011;11039;50.028;19.938;2022-08-18T10:39:19;11.10;;;9.93;;
21754;SDS011;11039;50.028;19.938;2022-08-18T10:41:55;11.27;;;10.23;;
21754;SDS011;11039;50.028;19.938;2022-08-18T10:44:23;11.02;;;9.93;;
21754;SDS011;11039;50.028;19.938;2022-08-18T10:46:51;11.18;;;10.00;;
21754;SDS011;11039;50.028;19.938;2022-08-18T10:49:21;11.15;;;10.05;;
21754;SDS011;11039;50.028;19.938;2022-08-18T10:57:19;11.98;;;10.07;;
21754;SDS011;11039;50.028;19.938;2022-08-18T10:59:58;10.68;;;9.45;;
21754;SDS011;11039;50.028;19.938;2022-08-18T11:02:34;11.00;;;9.90;;
21754;SDS011;11039;50.028;19.938;2022-08-18T11:05:05;11.73;;;9.55;;
21754;SDS011;11039;50.028;19.938;2022-08-18T11:07:32;17.02;;;11.02;;
21754;SDS011;11039;50.028;19.938;2022-08-18T11:09:59;18.83;;;11.82;;
21754;SDS011;11039;50.028;19.938;2022-08-18T11:15:21;17.70;;;10.77;;
21754;SDS011;11039;50.028;19.938;2022-08-18T11:18:00;15.18;;;10.27;;
21754;SDS011;11039;50.028;19.938;2022-08-18T11:20:30;14.30;;;10.30;;
21754;SDS011;11039;50.028;19.938;2022-08-18T11:22:58;11.30;;;9.82;;
21754;SDS011;11039;50.028;19.938;2022-08-18T11:25:32;14.45;;;10.05;;
21754;SDS011;11039;50.028;19.938;2022-08-18T11:27:58;15.40;;;9.75;;
21754;SDS011;11039;50.028;19.938;2022-08-18T11:30:27;12.88;;;10.18;;
21754;SDS011;11039;50.028;19.938;2022-08-18T11:32:54;12.55;;;9.90;;
21754;SDS011;11039;50.028;19.938;2022-08-18T11:35:23;12.50;;;9.95;;
21754;SDS011;11039;50.028;19.938;2022-08-18T11:42:56;11.02;;;9.85;;
21754;SDS011;11039;50.028;19.938;2022-08-18T11:45:24;13.85;;;9.63;;
21754;SDS011;11039;50.028;19.938;2022-08-18T11:47:58;12.73;;;9.50;;
21754;SDS011;11039;50.028;19.938;2022-08-18T11:50:26;12.93;;;9.50;;
21754;SDS011;11039;50.028;19.938;2022-08-18T11:52:52;12.27;;;9.05;;
21754;SDS011;11039;50.028;19.938;2022-08-18T11:55:29;11.40;;;9.48;;
21754;SDS011;11039;50.028;19.938;2022-08-18T11:57:57;10.90;;;8.65;;
21754;SDS011;11039;50.028;19.938;2022-08-18T12:00:53;11.65;;;9.50;;
21754;SDS011;11039;50.028;19.938;2022-08-18T12:03:26;11.50;;;9.35;;
21754;SDS011;11039;50.028;19.938;2022-08-18T12:06:17;10.65;;;9.45;;
21754;SDS011;11039;50.028;19.938;2022-08-18T12:08:50;11.07;;;9.55;;
21754;SDS011;11039;50.028;19.938;2022-08-18T12:11:19;10.73;;;8.75;;
21754;SDS011;11039;50.028;19.938;2022-08-18T12:13:46;9.77;;;8.77;;
21754;SDS011;11039;50.028;19.938;2022-08-18T12:16:14;11.05;;;8.55;;
21754;SDS011;11039;50.028;19.938;2022-08-18T12:18:41;10.85;;;9.52;;
21754;SDS011;11039;50.028;19.938;2022-08-18T12:21:07;12.68;;;9.15;;
21754;SDS011;11039;50.028;19.938;2022-08-18T12:23:34;9.98;;;8.95;;
21754;SDS011;11039;50.028;19.938;2022-08-18T12:26:01;10.15;;;9.10;;
21754;SDS011;11039;50.028;19.938;2022-08-18T12:28:27;9.50;;;8.48;;
21754;SDS011;11039;50.028;19.938;2022-08-18T12:30:53;11.32;;;8.90;;
21754;SDS011;11039;50.028;19.938;2022-08-18T12:33:19;10.18;;;8.73;;
21754;SDS011;11039;50.028;19.938;2022-08-18T12:35:46;9.65;;;8.65;;
21754;SDS011;11039;50.028;19.938;2022-08-18T12:38:12;10.10;;;8.90;;
21754;SDS011;11039;50.028;19.938;2022-08-18T12:40:41;12.35;;;8.85;;
21754;SDS011;11039;50.028;19.938;2022-08-18T12:43:08;9.82;;;8.90;;
21754;SDS011;11039;50.028;19.938;2022-08-18T12:45:34;9.73;;;8.73;;
21754;SDS011;11039;50.028;19.938;2022-08-18T12:48:01;10.73;;;9.07;;
21754;SDS011;11039;50.028;19.938;2022-08-18T12:50:27;11.52;;;8.70;;
21754;SDS011;11039;50.028;19.938;2022-08-18T12:52:53;10.05;;;8.35;;
21754;SDS011;11039;50.028;19.938;2022-08-18T12:55:19;9.90;;;8.52;;
21754;SDS011;11039;50.028;19.938;2022-08-18T12:57:45;9.55;;;8.55;;
21754;SDS011;11039;50.028;19.938;2022-08-18T13:00:11;9.63;;;8.05;;
21754;SDS011;11039;50.028;19.938;2022-08-18T13:02:37;9.77;;;8.27;;
21754;SDS011;11039;50.028;19.938;2022-08-18T13:05:03;12.50;;;9.10;;
21754;SDS011;11039;50.028;19.938;2022-08-18T13:07:30;10.57;;;8.82;;
21754;SDS011;11039;50.028;19.938;2022-08-18T13:09:56;10.10;;;8.57;;
21754;SDS011;11039;50.028;19.938;2022-08-18T13:12:22;11.20;;;8.48;;
21754;SDS011;11039;50.028;19.938;2022-08-18T13:14:50;11.07;;;8.55;;
21754;SDS011;11039;50.028;19.938;2022-08-18T13:17:18;10.65;;;8.57;;
21754;SDS011;11039;50.028;19.938;2022-08-18T13:19:45;9.48;;;8.13;;
21754;SDS011;11039;50.028;19.938;2022-08-18T13:22:11;10.52;;;9.13;;
21754;SDS011;11039;50.028;19.938;2022-08-18T13:24:37;10.82;;;8.73;;
21754;SDS011;11039;50.028;19.938;2022-08-18T13:27:03;9.40;;;8.40;;
21754;SDS011;11039;50.028;19.938;2022-08-18T13:29:29;9.63;;;8.63;;
21754;SDS011;11039;50.028;19.938;2022-08-18T13:31:55;11.32;;;9.07;;
21754;SDS011;11039;50.028;19.938;2022-08-18T13:34:24;10.38;;;8.65;;
21754;SDS011;11039;50.028;19.938;2022-08-18T13:36:51;9.23;;;8.38;;
21754;SDS011;11039;50.028;19.938;2022-08-18T13:39:18;10.45;;;8.55;;
21754;SDS011;11039;50.028;19.938;2022-08-18T13:41:45;9.65;;;8.75;;
21754;SDS011;11039;50.028;19.938;2022-08-18T13:44:13;10.65;;;8.52;;
21754;SDS011;11039;50.028;19.938;2022-08-18T13:46:41;8.95;;;8.07;;
21754;SDS011;11039;50.028;19.938;2022-08-18T13:49:14;11.05;;;8.05;;
21754;SDS011;11039;50.028;19.938;2022-08-18T13:51:41;10.05;;;8.85;;
21754;SDS011;11039;50.028;19.938;2022-08-18T13:54:08;9.43;;;8.52;;
21754;SDS011;11039;50.028;19.938;2022-08-18T13:56:36;9.55;;;8.52;;
21754;SDS011;11039;50.028;19.938;2022-08-18T13:59:02;8.93;;;8.02;;
21754;SDS011;11039;50.028;19.938;2022-08-18T14:01:29;9.55;;;8.52;;
21754;SDS011;11039;50.028;19.938;2022-08-18T14:03:56;12.32;;;8.93;;
21754;SDS011;11039;50.028;19.938;2022-08-18T14:06:22;10.13;;;8.65;;
21754;SDS011;11039;50.028;19.938;2022-08-18T14:08:48;8.45;;;7.60;;
21754;SDS011;11039;50.028;19.938;2022-08-18T14:11:14;11.50;;;8.85;;
21754;SDS011;11039;50.028;19.938;2022-08-18T14:13:40;10.02;;;9.07;;
21754;SDS011;11039;50.028;19.938;2022-08-18T14:16:07;11.23;;;8.52;;
21754;SDS011;11039;50.028;19.938;2022-08-18T14:18:33;9.95;;;8.45;;
21754;SDS011;11039;50.028;19.938;2022-08-18T14:20:59;10.27;;;8.40;;
21754;SDS011;11039;50.028;19.938;2022-08-18T14:23:44;9.10;;;8.05;;
21754;SDS011;11039;50.028;19.938;2022-08-18T14:26:28;8.90;;;8.00;;
21754;SDS011;11039;50.028;19.938;2022-08-18T14:29:13;10.18;;;8.20;;
21754;SDS011;11039;50.028;19.938;2022-08-18T14:31:40;9.35;;;8.45;;
21754;SDS011;11039;50.028;19.938;2022-08-18T14:34:06;9.40;;;8.30;;
21754;SDS011;11039;50.028;19.938;2022-08-18T14:36:32;8.95;;;8.07;;
21754;SDS011;11039;50.028;19.938;2022-08-18T14:38:58;8.80;;;8.00;;
21754;SDS011;11039;50.028;19.938;2022-08-18T14:41:25;16.92;;;9.95;;
21754;SDS011;11039;50.028;19.938;2022-08-18T14:43:51;20.63;;;11.73;;
21754;SDS011;11039;50.028;19.938;2022-08-18T14:46:20;22.50;;;10.93;;
21754;SDS011;11039;50.028;19.938;2022-08-18T14:48:46;27.08;;;12.52;;
21754;SDS011;11039;50.028;19.938;2022-08-18T14:51:12;23.20;;;15.18;;
21754;SDS011;11039;50.028;19.938;2022-08-18T14:53:38;36.90;;;19.42;;
21754;SDS011;11039;50.028;19.938;2022-08-18T14:56:04;26.63;;;15.38;;
21754;SDS011;11039;50.028;19.938;2022-08-18T14:58:32;29.33;;;15.27;;
21754;SDS011;11039;50.028;19.938;2022-08-18T15:01:02;34.35;;;14.43;;
21754;SDS011;11039;50.028;19.938;2022-08-18T15:03:31;23.70;;;14.18;;
21754;SDS011;11039;50.028;19.938;2022-08-18T15:05:58;26.92;;;13.55;;
21754;SDS011;11039;50.028;19.938;2022-08-18T15:08:25;25.17;;;13.23;;
21754;SDS011;11039;50.028;19.938;2022-08-18T15:10:51;22.75;;;12.52;;
21754;SDS011;11039;50.028;19.938;2022-08-18T15:13:17;21.65;;;11.90;;
21754;SDS011;11039;50.028;19.938;2022-08-18T15:15:43;34.58;;;13.07;;
21754;SDS011;11039;50.028;19.938;2022-08-18T15:18:09;21.70;;;11.57;;
21754;SDS011;11039;50.028;19.938;2022-08-18T15:20:35;15.35;;;11.35;;
21754;SDS011;11039;50.028;19.938;2022-08-18T15:23:21;17.85;;;10.85;;
21754;SDS011;11039;50.028;19.938;2022-08-18T15:26:06;16.55;;;9.70;;
21754;SDS011;11039;50.028;19.938;2022-08-18T15:28:32;13.20;;;10.40;;
21754;SDS011;11039;50.028;19.938;2022-08-18T15:30:58;15.85;;;9.70;;
21754;SDS011;11039;50.028;19.938;2022-08-18T15:33:24;16.73;;;9.40;;
21754;SDS011;11039;50.028;19.938;2022-08-18T15:35:52;15.95;;;10.35;;
21754;SDS011;11039;50.028;19.938;2022-08-18T15:38:20;16.77;;;9.95;;
21754;SDS011;11039;50.028;19.938;2022-08-18T15:40:48;15.38;;;9.60;;
21754;SDS011;11039;50.028;19.938;2022-08-18T15:43:14;12.23;;;9.77;;
21754;SDS011;11039;50.028;19.938;2022-08-18T15:45:42;12.50;;;9.02;;
21754;SDS011;11039;50.028;19.938;2022-08-18T15:48:11;11.95;;;9.70;;
21754;SDS011;11039;50.028;19.938;2022-08-18T15:50:38;12.27;;;9.25;;
21754;SDS011;11039;50.028;19.938;2022-08-18T15:53:04;15.02;;;9.90;;
21754;SDS011;11039;50.028;19.938;2022-08-18T15:55:31;12.93;;;9.25;;
21754;SDS011;11039;50.028;19.938;2022-08-18T15:57:58;11.40;;;9.07;;
21754;SDS011;11039;50.028;19.938;2022-08-18T16:00:26;10.38;;;9.27;;
21754;SDS011;11039;50.028;19.938;2022-08-18T16:02:56;11.02;;;9.18;;
21754;SDS011;11039;50.028;19.938;2022-08-18T16:05:24;11.27;;;8.80;;
21754;SDS011;11039;50.028;19.938;2022-08-18T16:07:50;10.95;;;8.73;;
21754;SDS011;11039;50.028;19.938;2022-08-18T16:10:18;11.38;;;8.70;;
21754;SDS011;11039;50.028;19.938;2022-08-18T16:12:44;11.02;;;8.70;;
21754;SDS011;11039;50.028;19.938;2022-08-18T16:15:12;10.70;;;8.40;;
21754;SDS011;11039;50.028;19.938;2022-08-18T16:17:39;10.18;;;8.10;;
21754;SDS011;11039;50.028;19.938;2022-08-18T16:20:05;10.27;;;8.68;;
21754;SDS011;11039;50.028;19.938;2022-08-18T16:22:32;10.40;;;8.63;;
21754;SDS011;11039;50.028;19.938;2022-08-18T16:24:59;10.27;;;8.40;;
21754;SDS011;11039;50.028;19.938;2022-08-18T16:27:26;9.82;;;8.82;;